createdAt,value
2016-02-14T00:00:27.039Z,0
2016-02-14T00:01:27.057Z,0
2016-02-14T00:02:27.060Z,0
2016-02-14T00:03:27.047Z,0
2016-02-14T00:04:27.018Z,0
2016-02-14T00:05:27.037Z,0
2016-02-14T00:06:27.040Z,0
2016-02-14T00:07:27.042Z,0
2016-02-14T00:08:27.045Z,0
2016-02-14T00:09:27.032Z,0
2016-02-14T00:10:27.019Z,0
2016-02-14T00:11:27.038Z,0
2016-02-14T00:12:27.056Z,0
2016-02-14T00:13:27.026Z,0
2016-02-14T00:14:27.030Z,0
2016-02-14T00:15:27.032Z,0
2016-02-14T00:16:27.034Z,0
2016-02-14T00:17:27.023Z,0
2016-02-14T00:18:27.040Z,0
2016-02-14T00:19:27.059Z,0
2016-02-14T00:20:27.030Z,0
2016-02-14T00:21:27.048Z,0
2016-02-14T00:22:27.051Z,0
2016-02-14T00:23:27.023Z,0
2016-02-14T00:24:27.025Z,0
2016-02-14T00:25:27.043Z,0
2016-02-14T00:26:27.031Z,0
2016-02-14T00:27:27.018Z,0
2016-02-14T00:28:27.021Z,0
2016-02-14T00:29:27.008Z,0
2016-02-14T00:30:26.886Z,0
2016-02-14T00:31:26.879Z,0
2016-02-14T00:32:26.882Z,0
2016-02-14T00:33:27.040Z,0
2016-02-14T00:34:27.028Z,0
2016-02-14T00:35:27.020Z,0
2016-02-14T00:36:27.022Z,0
2016-02-14T00:37:27.025Z,0
2016-02-14T00:38:27.044Z,0
2016-02-14T00:39:27.030Z,0
2016-02-14T00:40:27.018Z,0
2016-02-14T00:41:27.020Z,0
2016-02-14T00:42:27.022Z,0
2016-02-14T00:43:27.042Z,0
2016-02-14T00:44:27.044Z,0
2016-02-14T00:45:27.015Z,0
2016-02-14T00:46:27.002Z,0
2016-02-14T00:47:27.021Z,0
2016-02-14T00:48:28.601Z,0
2016-02-14T00:49:27.011Z,0
2016-02-14T00:50:27.013Z,0
2016-02-14T00:51:27.016Z,0
2016-02-14T00:52:27.035Z,0
2016-02-14T00:53:27.021Z,0
2016-02-14T00:54:27.008Z,0
2016-02-14T00:55:27.012Z,0
2016-02-14T00:56:27.014Z,0
2016-02-14T00:57:27.017Z,0
2016-02-14T00:58:27.004Z,0
2016-02-14T00:59:27.006Z,0
2016-02-14T01:00:26.993Z,0
2016-02-14T01:01:27.012Z,0
2016-02-14T01:02:26.998Z,0
2016-02-14T01:03:27.001Z,0
2016-02-14T01:04:27.036Z,0
2016-02-14T01:05:27.038Z,0
2016-02-14T01:06:27.025Z,0
2016-02-14T01:07:26.997Z,0
2016-02-14T01:08:27.000Z,0
2016-02-14T01:09:27.002Z,0
2016-02-14T01:10:27.005Z,0
2016-02-14T01:11:27.007Z,0
2016-02-14T01:12:26.994Z,0
2016-02-14T01:13:26.997Z,0
2016-02-14T01:14:26.999Z,0
2016-02-14T01:15:27.019Z,0
2016-02-14T01:16:27.005Z,0
2016-02-14T01:17:27.024Z,0
2016-02-14T01:18:27.010Z,0
2016-02-14T01:19:27.013Z,0
2016-02-14T01:20:27.000Z,0
2016-02-14T01:21:27.002Z,0
2016-02-14T01:22:27.005Z,0
2016-02-14T01:23:26.993Z,0
2016-02-14T01:24:26.996Z,0
2016-02-14T01:25:26.999Z,0
2016-02-14T01:26:27.001Z,0
2016-02-14T01:27:27.018Z,0
2016-02-14T01:28:27.007Z,0
2016-02-14T01:29:26.978Z,0
2016-02-14T01:30:26.839Z,0
2016-02-14T01:31:26.983Z,0
2016-02-14T01:32:26.986Z,0
2016-02-14T01:33:26.988Z,0
2016-02-14T01:34:26.992Z,0
2016-02-14T01:35:27.009Z,0
2016-02-14T01:36:26.996Z,0
2016-02-14T01:37:27.000Z,0
2016-02-14T01:38:27.002Z,0
2016-02-14T01:39:26.988Z,0
2016-02-14T01:40:27.008Z,0
2016-02-14T01:41:26.994Z,0
2016-02-14T01:42:26.997Z,0
2016-02-14T01:43:27.000Z,0
2016-02-14T01:44:26.986Z,0
2016-02-14T01:45:27.005Z,0
2016-02-14T01:46:26.992Z,0
2016-02-14T01:47:27.010Z,0
2016-02-14T01:48:27.029Z,0
2016-02-14T01:49:26.999Z,0
2016-02-14T01:50:26.987Z,0
2016-02-14T01:51:26.974Z,0
2016-02-14T01:52:26.976Z,0
2016-02-14T01:53:26.979Z,0
2016-02-14T01:54:26.826Z,0
2016-02-14T01:55:26.984Z,0
2016-02-14T01:56:26.971Z,0
2016-02-14T01:57:26.990Z,0
2016-02-14T01:58:26.977Z,0
2016-02-14T01:59:26.996Z,0
2016-02-14T02:00:26.968Z,0
2016-02-14T02:01:26.985Z,0
2016-02-14T02:02:26.863Z,0
2016-02-14T02:03:26.959Z,0
2016-02-14T02:04:26.978Z,0
2016-02-14T02:05:26.996Z,0
2016-02-14T02:06:26.983Z,0
2016-02-14T02:07:26.986Z,0
2016-02-14T02:08:26.973Z,0
2016-02-14T02:09:26.992Z,0
2016-02-14T02:10:26.963Z,0
2016-02-14T02:11:26.981Z,0
2016-02-14T02:12:26.983Z,0
2016-02-14T02:13:26.972Z,0
2016-02-14T02:14:26.974Z,0
2016-02-14T02:15:26.976Z,0
2016-02-14T02:16:26.979Z,0
2016-02-14T02:17:27.013Z,0
2016-02-14T02:18:26.985Z,0
2016-02-14T02:19:26.988Z,0
2016-02-14T02:20:26.974Z,0
2016-02-14T02:21:26.976Z,0
2016-02-14T02:22:26.964Z,0
2016-02-14T02:23:26.966Z,0
2016-02-14T02:24:26.984Z,0
2016-02-14T02:25:26.972Z,0
2016-02-14T02:26:26.990Z,0
2016-02-14T02:27:26.962Z,0
2016-02-14T02:28:26.965Z,0
2016-02-14T02:29:26.982Z,0
2016-02-14T02:30:26.985Z,0
2016-02-14T02:31:26.957Z,0
2016-02-14T02:32:27.006Z,0
2016-02-14T02:33:26.978Z,0
2016-02-14T02:34:26.965Z,0
2016-02-14T02:35:26.967Z,0
2016-02-14T02:36:26.970Z,0
2016-02-14T02:37:26.957Z,0
2016-02-14T02:38:26.975Z,0
2016-02-14T02:39:26.822Z,0
2016-02-14T02:40:26.965Z,0
2016-02-14T02:41:26.967Z,0
2016-02-14T02:42:26.970Z,0
2016-02-14T02:43:26.958Z,0
2016-02-14T02:44:26.960Z,0
2016-02-14T02:45:26.963Z,0
2016-02-14T02:46:26.950Z,0
2016-02-14T02:47:26.969Z,0
2016-02-14T02:48:26.940Z,0
2016-02-14T02:49:26.958Z,0
2016-02-14T02:50:26.961Z,0
2016-02-14T02:51:26.963Z,0
2016-02-14T02:52:26.951Z,0
2016-02-14T02:53:26.954Z,0
2016-02-14T02:54:26.957Z,0
2016-02-14T02:55:26.960Z,0
2016-02-14T02:56:26.805Z,0
2016-02-14T02:57:26.948Z,0
2016-02-14T02:58:26.952Z,0
2016-02-14T02:59:26.954Z,0
2016-02-14T03:00:26.956Z,0
2016-02-14T03:01:26.943Z,0
2016-02-14T03:02:26.931Z,0
2016-02-14T03:03:26.948Z,0
2016-02-14T03:04:26.952Z,0
2016-02-14T03:05:26.939Z,0
2016-02-14T03:06:26.941Z,0
2016-02-14T03:07:26.960Z,0
2016-02-14T03:08:26.947Z,0
2016-02-14T03:09:26.949Z,0
2016-02-14T03:10:26.953Z,0
2016-02-14T03:11:26.955Z,0
2016-02-14T03:12:26.958Z,0
2016-02-14T03:13:26.961Z,0
2016-02-14T03:14:26.963Z,0
2016-02-14T03:15:26.934Z,0
2016-02-14T03:16:26.937Z,0
2016-02-14T03:17:26.972Z,0
2016-02-14T03:18:26.927Z,0
2016-02-14T03:19:26.944Z,0
2016-02-14T03:20:26.948Z,0
2016-02-14T03:21:26.966Z,0
2016-02-14T03:22:26.938Z,0
2016-02-14T03:23:26.784Z,0
2016-02-14T03:24:26.943Z,0
2016-02-14T03:25:26.961Z,0
2016-02-14T03:26:26.948Z,0
2016-02-14T03:27:26.951Z,0
2016-02-14T03:28:26.923Z,0
2016-02-14T03:29:26.926Z,0
2016-02-14T03:30:26.943Z,0
2016-02-14T03:31:26.931Z,0
2016-02-14T03:32:26.934Z,0
2016-02-14T03:33:26.795Z,0
2016-02-14T03:34:26.923Z,0
2016-02-14T03:35:26.926Z,0
2016-02-14T03:36:26.928Z,0
2016-02-14T03:37:26.931Z,0
2016-02-14T03:38:26.950Z,0
2016-02-14T03:39:26.920Z,0
2016-02-14T03:40:26.924Z,0
2016-02-14T03:41:26.926Z,0
2016-02-14T03:42:26.928Z,0
2016-02-14T03:43:26.947Z,0
2016-02-14T03:44:26.950Z,0
2016-02-14T03:45:26.921Z,0
2016-02-14T03:46:26.924Z,0
2016-02-14T03:47:26.927Z,0
2016-02-14T03:48:26.929Z,0
2016-02-14T03:49:26.948Z,0
2016-02-14T03:50:26.935Z,0
2016-02-14T03:51:26.937Z,0
2016-02-14T03:52:26.941Z,0
2016-02-14T03:53:26.927Z,0
2016-02-14T03:54:26.930Z,0
2016-02-14T03:55:26.916Z,0
2016-02-14T03:56:26.935Z,0
2016-02-14T03:57:26.922Z,0
2016-02-14T03:58:26.769Z,0
2016-02-14T03:59:26.927Z,0
2016-02-14T04:00:26.915Z,0
2016-02-14T04:01:26.917Z,0
2016-02-14T04:02:26.936Z,0
2016-02-14T04:03:26.907Z,0
2016-02-14T04:04:26.925Z,0
2016-02-14T04:05:26.929Z,0
2016-02-14T04:06:26.900Z,0
2016-02-14T04:07:26.903Z,0
2016-02-14T04:08:26.905Z,0
2016-02-14T04:09:26.923Z,0
2016-02-14T04:10:26.910Z,0
2016-02-14T04:11:26.914Z,0
2016-02-14T04:12:26.916Z,0
2016-02-14T04:13:26.918Z,0
2016-02-14T04:14:26.922Z,0
2016-02-14T04:15:26.908Z,0
2016-02-14T04:16:26.895Z,0
2016-02-14T04:17:26.898Z,0
2016-02-14T04:18:26.900Z,0
2016-02-14T04:19:26.903Z,0
2016-02-14T04:20:26.906Z,0
2016-02-14T04:21:26.908Z,0
2016-02-14T04:22:26.911Z,0
2016-02-14T04:23:26.899Z,0
2016-02-14T04:24:26.901Z,0
2016-02-14T04:25:26.904Z,0
2016-02-14T04:26:26.907Z,0
2016-02-14T04:27:26.894Z,0
2016-02-14T04:28:26.896Z,0
2016-02-14T04:29:26.915Z,0
2016-02-14T04:30:26.901Z,0
2016-02-14T04:31:26.904Z,0
2016-02-14T04:32:26.906Z,0
2016-02-14T04:33:26.909Z,0
2016-02-14T04:34:26.896Z,0
2016-02-14T04:35:26.931Z,0
2016-02-14T04:36:26.887Z,0
2016-02-14T04:37:26.889Z,0
2016-02-14T04:38:26.907Z,0
2016-02-14T04:39:26.910Z,0
2016-02-14T04:40:26.897Z,0
2016-02-14T04:41:26.900Z,0
2016-02-14T04:42:26.891Z,0
2016-02-14T04:43:26.893Z,0
2016-02-14T04:44:26.897Z,0
2016-02-14T04:45:26.915Z,0
2016-02-14T04:46:26.902Z,0
2016-02-14T04:47:26.888Z,0
2016-02-14T04:48:26.735Z,0
2016-02-14T04:49:26.909Z,0
2016-02-14T04:50:26.897Z,0
2016-02-14T04:51:26.884Z,0
2016-02-14T04:52:26.870Z,0
2016-02-14T04:53:26.904Z,0
2016-02-14T04:54:26.876Z,0
2016-02-14T04:55:26.879Z,0
2016-02-14T04:56:26.881Z,0
2016-02-14T04:57:26.900Z,0
2016-02-14T04:58:26.872Z,0
2016-02-14T04:59:26.875Z,0
2016-02-14T05:00:26.892Z,0
2016-02-14T05:01:26.895Z,0
2016-02-14T05:02:26.882Z,0
2016-02-14T05:03:26.886Z,0
2016-02-14T05:04:26.903Z,0
2016-02-14T05:05:26.890Z,0
2016-02-14T05:06:26.877Z,0
2016-02-14T05:07:26.880Z,0
2016-02-14T05:08:26.867Z,0
2016-02-14T05:09:26.870Z,0
2016-02-14T05:10:26.872Z,0
2016-02-14T05:11:26.874Z,0
2016-02-14T05:12:26.879Z,0
2016-02-14T05:13:26.881Z,0
2016-02-14T05:14:26.868Z,0
2016-02-14T05:15:26.872Z,0
2016-02-14T05:16:26.874Z,0
2016-02-14T05:17:26.877Z,0
2016-02-14T05:18:26.864Z,0
2016-02-14T05:19:26.882Z,0
2016-02-14T05:20:26.869Z,0
2016-02-14T05:21:26.856Z,0
2016-02-14T05:22:26.874Z,0
2016-02-14T05:23:26.877Z,0
2016-02-14T05:24:26.863Z,0
2016-02-14T05:25:26.852Z,0
2016-02-14T05:26:26.854Z,0
2016-02-14T05:27:26.872Z,0
2016-02-14T05:28:26.875Z,0
2016-02-14T05:29:26.862Z,0
2016-02-14T05:30:26.849Z,0
2016-02-14T05:31:26.852Z,0
2016-02-14T05:32:26.854Z,0
2016-02-14T05:33:26.856Z,0
2016-02-14T05:34:26.845Z,0
2016-02-14T05:35:26.847Z,0
2016-02-14T05:36:26.865Z,0
2016-02-14T05:37:26.837Z,0
2016-02-14T05:38:26.870Z,0
2016-02-14T05:39:26.842Z,0
2016-02-14T05:40:26.861Z,0
2016-02-14T05:41:26.863Z,0
2016-02-14T05:42:26.850Z,0
2016-02-14T05:43:26.836Z,0
2016-02-14T05:44:26.839Z,0
2016-02-14T05:45:26.859Z,0
2016-02-14T05:46:26.845Z,0
2016-02-14T05:47:26.848Z,0
2016-02-14T05:48:26.866Z,0
2016-02-14T05:49:26.838Z,0
2016-02-14T05:50:26.841Z,0
2016-02-14T05:51:26.843Z,0
2016-02-14T05:52:26.830Z,0
2016-02-14T05:53:26.833Z,0
2016-02-14T05:54:26.852Z,0
2016-02-14T05:55:26.870Z,0
2016-02-14T05:56:26.841Z,0
2016-02-14T05:57:26.812Z,0
2016-02-14T05:58:26.830Z,0
2016-02-14T05:59:26.849Z,0
2016-02-14T06:00:26.851Z,0
2016-02-14T06:01:26.823Z,0
2016-02-14T06:02:26.826Z,0
2016-02-14T06:03:26.828Z,0
2016-02-14T06:04:26.538Z,0
2016-02-14T06:05:26.823Z,0
2016-02-14T06:06:26.826Z,0
2016-02-14T06:07:26.828Z,0
2016-02-14T06:08:26.815Z,0
2016-02-14T06:09:26.834Z,0
2016-02-14T06:10:26.820Z,0
2016-02-14T06:11:26.824Z,0
2016-02-14T06:12:26.811Z,0
2016-02-14T06:13:26.813Z,0
2016-02-14T06:14:26.847Z,0
2016-02-14T06:15:26.819Z,0
2016-02-14T06:16:26.790Z,0
2016-02-14T06:17:26.808Z,0
2016-02-14T06:18:26.842Z,0
2016-02-14T06:19:26.829Z,0
2016-02-14T06:20:26.817Z,0
2016-02-14T06:21:26.804Z,0
2016-02-14T06:22:26.790Z,0
2016-02-14T06:23:26.793Z,0
2016-02-14T06:24:26.812Z,0
2016-02-14T06:25:26.798Z,0
2016-02-14T06:26:26.785Z,0
2016-02-14T06:27:26.788Z,0
2016-02-14T06:28:26.807Z,0
2016-02-14T06:29:26.654Z,0
2016-02-14T06:30:26.796Z,0
2016-02-14T06:31:26.799Z,0
2016-02-14T06:32:26.787Z,0
2016-02-14T06:33:26.789Z,5
2016-02-14T06:34:26.807Z,5
2016-02-14T06:35:26.794Z,5
2016-02-14T06:36:26.798Z,5
2016-02-14T06:37:26.784Z,5
2016-02-14T06:38:26.787Z,5
2016-02-14T06:39:26.805Z,5
2016-02-14T06:40:26.792Z,5
2016-02-14T06:41:26.778Z,10
2016-02-14T06:42:26.829Z,10
2016-02-14T06:43:26.800Z,10
2016-02-14T06:44:26.802Z,10
2016-02-14T06:45:26.790Z,15
2016-02-14T06:46:26.792Z,15
2016-02-14T06:47:26.780Z,15
2016-02-14T06:48:26.798Z,15
2016-02-14T06:49:26.801Z,15
2016-02-14T06:50:26.788Z,15
2016-02-14T06:51:26.806Z,20
2016-02-14T06:52:26.777Z,20
2016-02-14T06:53:26.780Z,25
2016-02-14T06:54:26.783Z,25
2016-02-14T06:55:26.785Z,30
2016-02-14T06:56:26.773Z,30
2016-02-14T06:57:26.791Z,30
2016-02-14T06:58:26.794Z,35
2016-02-14T06:59:26.609Z,35
2016-02-14T07:00:26.768Z,35
2016-02-14T07:01:26.760Z,40
2016-02-14T07:02:26.768Z,40
2016-02-14T07:03:26.746Z,45
2016-02-14T07:04:26.738Z,50
2016-02-14T07:05:26.716Z,65
2016-02-14T07:06:26.731Z,65
2016-02-14T07:07:26.729Z,70
2016-02-14T07:08:26.557Z,70
2016-02-14T07:09:26.712Z,75
2016-02-14T07:10:26.696Z,80
2016-02-14T07:11:26.729Z,105
2016-02-14T07:12:26.715Z,110
2016-02-14T07:13:26.701Z,115
2016-02-14T07:14:26.545Z,115
2016-02-14T07:15:26.689Z,115
2016-02-14T07:16:26.707Z,90
2016-02-14T07:17:26.692Z,70
2016-02-14T07:18:26.679Z,55
2016-02-14T07:19:26.697Z,50
2016-02-14T07:20:26.700Z,50
2016-02-14T07:21:26.686Z,65
2016-02-14T07:22:26.689Z,70
2016-02-14T07:23:26.690Z,90
2016-02-14T07:24:26.709Z,105
2016-02-14T07:25:26.711Z,80
2016-02-14T07:26:26.683Z,70
2016-02-14T07:27:26.686Z,65
2016-02-14T07:28:26.689Z,60
2016-02-14T07:29:26.691Z,60
2016-02-14T07:30:26.693Z,55
2016-02-14T07:31:26.697Z,55
2016-02-14T07:32:26.683Z,55
2016-02-14T07:33:26.686Z,50
2016-02-14T07:34:26.720Z,50
2016-02-14T07:35:26.676Z,50
2016-02-14T07:36:26.694Z,55
2016-02-14T07:37:26.682Z,55
2016-02-14T07:38:26.715Z,55
2016-02-14T07:39:26.670Z,55
2016-02-14T07:40:26.690Z,55
2016-02-14T07:41:26.676Z,60
2016-02-14T07:42:26.695Z,65
2016-02-14T07:43:26.682Z,70
2016-02-14T07:44:26.684Z,75
2016-02-14T07:45:26.687Z,80
2016-02-14T07:46:26.690Z,80
2016-02-14T07:47:26.692Z,80
2016-02-14T07:48:26.711Z,80
2016-02-14T07:49:26.682Z,80
2016-02-14T07:50:26.700Z,80
2016-02-14T07:51:26.688Z,80
2016-02-14T07:52:26.690Z,85
2016-02-14T07:53:26.693Z,90
2016-02-14T07:54:26.680Z,90
2016-02-14T07:55:26.698Z,95
2016-02-14T07:56:26.701Z,90
2016-02-14T07:57:26.688Z,100
2016-02-14T07:58:26.675Z,105
2016-02-14T07:59:26.677Z,100
2016-02-14T08:00:26.681Z,100
2016-02-14T08:01:26.683Z,95
2016-02-14T08:02:26.702Z,100
2016-02-14T08:03:26.688Z,100
2016-02-14T08:04:26.707Z,115
2016-02-14T08:05:26.694Z,100
2016-02-14T08:06:26.524Z,100
2016-02-14T08:07:26.683Z,100
2016-02-14T08:08:26.686Z,100
2016-02-14T08:09:26.689Z,100
2016-02-14T08:10:26.691Z,105
2016-02-14T08:11:26.694Z,105
2016-02-14T08:12:26.681Z,105
2016-02-14T08:13:26.685Z,95
2016-02-14T08:14:26.702Z,95
2016-02-14T08:15:26.689Z,95
2016-02-14T08:16:26.708Z,95
2016-02-14T08:17:26.679Z,95
2016-02-14T08:18:26.682Z,90
2016-02-14T08:19:26.685Z,85
2016-02-14T08:20:26.687Z,85
2016-02-14T08:21:26.706Z,90
2016-02-14T08:22:26.678Z,95
2016-02-14T08:23:26.681Z,90
2016-02-14T08:24:26.682Z,85
2016-02-14T08:25:26.716Z,85
2016-02-14T08:26:26.719Z,80
2016-02-14T08:27:26.706Z,80
2016-02-14T08:28:26.694Z,80
2016-02-14T08:29:26.696Z,85
2016-02-14T08:30:26.699Z,85
2016-02-14T08:31:26.702Z,85
2016-02-14T08:32:26.688Z,80
2016-02-14T08:33:26.691Z,80
2016-02-14T08:34:26.710Z,80
2016-02-14T08:35:26.696Z,85
2016-02-14T08:36:26.559Z,90
2016-02-14T08:37:26.702Z,85
2016-02-14T08:38:26.704Z,85
2016-02-14T08:39:26.566Z,90
2016-02-14T08:40:26.694Z,95
2016-02-14T08:41:26.713Z,90
2016-02-14T08:42:26.699Z,90
2016-02-14T08:43:26.702Z,90
2016-02-14T08:44:26.689Z,80
2016-02-14T08:45:26.724Z,80
2016-02-14T08:46:26.695Z,80
2016-02-14T08:47:26.712Z,85
2016-02-14T08:48:26.715Z,95
2016-02-14T08:49:26.718Z,100
2016-02-14T08:50:26.721Z,100
2016-02-14T08:51:26.693Z,100
2016-02-14T08:52:26.726Z,100
2016-02-14T08:53:26.698Z,100
2016-02-14T08:54:26.732Z,95
2016-02-14T08:55:26.719Z,95
2016-02-14T08:56:26.706Z,90
2016-02-14T08:57:26.725Z,90
2016-02-14T08:58:26.727Z,85
2016-02-14T08:59:26.714Z,90
2016-02-14T09:00:26.700Z,90
2016-02-14T09:01:26.720Z,95
2016-02-14T09:02:26.722Z,95
2016-02-14T09:03:26.741Z,95
2016-02-14T09:04:26.728Z,100
2016-02-14T09:05:26.714Z,110
2016-02-14T09:06:26.717Z,110
2016-02-14T09:07:26.719Z,105
2016-02-14T09:08:26.707Z,100
2016-02-14T09:09:26.757Z,100
2016-02-14T09:10:26.712Z,105
2016-02-14T09:11:26.716Z,110
2016-02-14T09:12:26.718Z,115
2016-02-14T09:13:26.705Z,115
2016-02-14T09:14:26.738Z,115
2016-02-14T09:15:26.710Z,120
2016-02-14T09:16:26.729Z,125
2016-02-14T09:17:26.715Z,120
2016-02-14T09:18:26.734Z,115
2016-02-14T09:19:26.721Z,110
2016-02-14T09:20:26.740Z,110
2016-02-14T09:21:26.726Z,105
2016-02-14T09:22:26.745Z,105
2016-02-14T09:23:26.717Z,95
2016-02-14T09:24:26.750Z,90
2016-02-14T09:25:26.705Z,90
2016-02-14T09:26:26.740Z,95
2016-02-14T09:27:26.727Z,105
2016-02-14T09:28:26.714Z,110
2016-02-14T09:29:26.733Z,100
2016-02-14T09:30:26.719Z,90
2016-02-14T09:31:26.581Z,85
2016-02-14T09:32:26.725Z,80
2016-02-14T09:33:26.743Z,75
2016-02-14T09:34:26.746Z,75
2016-02-14T09:35:26.733Z,75
2016-02-14T09:36:26.751Z,75
2016-02-14T09:37:26.755Z,85
2016-02-14T09:38:26.741Z,90
2016-02-14T09:39:26.743Z,90
2016-02-14T09:40:26.731Z,85
2016-02-14T09:41:26.749Z,80
2016-02-14T09:42:26.751Z,80
2016-02-14T09:43:26.770Z,85
2016-02-14T09:44:26.757Z,90
2016-02-14T09:45:26.744Z,95
2016-02-14T09:46:26.778Z,100
2016-02-14T09:47:26.734Z,100
2016-02-14T09:48:26.768Z,105
2016-02-14T09:49:26.723Z,105
2016-02-14T09:50:26.757Z,105
2016-02-14T09:51:26.744Z,100
2016-02-14T09:52:26.779Z,95
2016-02-14T09:53:26.734Z,95
2016-02-14T09:54:26.768Z,90
2016-02-14T09:55:26.756Z,85
2016-02-14T09:56:26.773Z,85
2016-02-14T09:57:26.761Z,90
2016-02-14T09:58:26.764Z,95
2016-02-14T09:59:26.781Z,105
2016-02-14T10:00:26.753Z,105
2016-02-14T10:01:26.772Z,100
2016-02-14T10:02:26.759Z,95
2016-02-14T10:03:26.761Z,100
2016-02-14T10:04:26.607Z,110
2016-02-14T10:05:26.751Z,120
2016-02-14T10:06:26.753Z,125
2016-02-14T10:07:26.771Z,125
2016-02-14T10:08:26.791Z,120
2016-02-14T10:09:26.761Z,115
2016-02-14T10:10:26.796Z,110
2016-02-14T10:11:26.783Z,105
2016-02-14T10:12:26.769Z,100
2016-02-14T10:13:26.804Z,105
2016-02-14T10:14:26.760Z,105
2016-02-14T10:15:26.762Z,105
2016-02-14T10:16:26.780Z,110
2016-02-14T10:17:26.768Z,110
2016-02-14T10:18:26.786Z,115
2016-02-14T10:19:26.757Z,120
2016-02-14T10:20:26.790Z,125
2016-02-14T10:21:26.763Z,125
2016-02-14T10:22:26.781Z,130
2016-02-14T10:23:26.767Z,130
2016-02-14T10:24:26.787Z,140
2016-02-14T10:25:26.773Z,145
2016-02-14T10:26:26.792Z,150
2016-02-14T10:27:26.795Z,150
2016-02-14T10:28:26.797Z,150
2016-02-14T10:29:26.800Z,150
2016-02-14T10:30:26.818Z,150
2016-02-14T10:31:26.789Z,140
2016-02-14T10:32:26.792Z,140
2016-02-14T10:33:26.795Z,140
2016-02-14T10:34:26.798Z,140
2016-02-14T10:35:26.785Z,145
2016-02-14T10:36:26.787Z,155
2016-02-14T10:37:26.778Z,160
2016-02-14T10:38:26.780Z,155
2016-02-14T10:39:26.814Z,150
2016-02-14T10:40:26.801Z,160
2016-02-14T10:41:26.788Z,150
2016-02-14T10:42:26.791Z,140
2016-02-14T10:43:26.809Z,130
2016-02-14T10:44:26.796Z,125
2016-02-14T10:45:26.799Z,115
2016-02-14T10:46:26.802Z,110
2016-02-14T10:47:26.804Z,115
2016-02-14T10:48:26.808Z,120
2016-02-14T10:49:26.794Z,125
2016-02-14T10:50:26.796Z,125
2016-02-14T10:51:26.815Z,135
2016-02-14T10:52:26.801Z,140
2016-02-14T10:53:26.820Z,140
2016-02-14T10:54:26.823Z,130
2016-02-14T10:55:26.826Z,125
2016-02-14T10:56:26.798Z,115
2016-02-14T10:57:26.846Z,105
2016-02-14T10:58:26.803Z,100
2016-02-14T10:59:26.821Z,95
2016-02-14T11:00:26.823Z,90
2016-02-14T11:01:26.811Z,85
2016-02-14T11:02:26.829Z,80
2016-02-14T11:03:26.848Z,80
2016-02-14T11:04:26.819Z,80
2016-02-14T11:05:26.822Z,80
2016-02-14T11:06:26.825Z,80
2016-02-14T11:07:26.827Z,80
2016-02-14T11:08:26.844Z,80
2016-02-14T11:09:26.833Z,80
2016-02-14T11:10:26.850Z,85
2016-02-14T11:11:26.838Z,90
2016-02-14T11:12:26.841Z,95
2016-02-14T11:13:26.843Z,100
2016-02-14T11:14:26.830Z,105
2016-02-14T11:15:26.849Z,110
2016-02-14T11:16:26.851Z,110
2016-02-14T11:17:26.854Z,105
2016-02-14T11:18:26.857Z,95
2016-02-14T11:19:26.860Z,90
2016-02-14T11:20:30.862Z,85
2016-02-14T11:21:26.849Z,80
2016-02-14T11:22:26.868Z,85
2016-02-14T11:23:29.010Z,85
2016-02-14T11:24:26.857Z,80
2016-02-14T11:25:26.859Z,80
2016-02-14T11:26:26.879Z,75
2016-02-14T11:27:26.865Z,70
2016-02-14T11:28:26.898Z,70
2016-02-14T11:29:26.933Z,70
2016-02-14T11:30:26.873Z,70
2016-02-14T11:31:26.734Z,70
2016-02-14T11:32:26.863Z,70
2016-02-14T11:33:26.865Z,70
2016-02-14T11:34:26.915Z,75
2016-02-14T11:35:26.871Z,75
2016-02-14T11:36:26.858Z,75
2016-02-14T11:37:26.892Z,75
2016-02-14T11:38:26.863Z,80
2016-02-14T11:39:26.866Z,80
2016-02-14T11:40:26.884Z,75
2016-02-14T11:41:26.872Z,70
2016-02-14T11:42:26.889Z,65
2016-02-14T11:43:26.877Z,65
2016-02-14T11:44:26.911Z,60
2016-02-14T11:45:26.897Z,60
2016-02-14T11:46:26.885Z,65
2016-02-14T11:47:26.935Z,65
2016-02-14T11:48:26.890Z,60
2016-02-14T11:49:26.909Z,60
2016-02-14T11:50:26.896Z,60
2016-02-14T11:51:26.914Z,55
2016-02-14T11:52:27.182Z,55
2016-02-14T11:53:26.887Z,55
2016-02-14T11:54:26.922Z,50
2016-02-14T11:55:26.909Z,50
2016-02-14T11:56:26.912Z,50
2016-02-14T11:57:26.915Z,50
2016-02-14T11:58:26.917Z,50
2016-02-14T11:59:26.920Z,50
2016-02-14T12:00:26.890Z,45
2016-02-14T12:01:26.925Z,45
2016-02-14T12:02:26.912Z,40
2016-02-14T12:03:26.930Z,40
2016-02-14T12:04:26.917Z,40
2016-02-14T12:05:26.920Z,40
2016-02-14T12:06:26.906Z,40
2016-02-14T12:07:26.941Z,40
2016-02-14T12:08:26.897Z,40
2016-02-14T12:09:26.947Z,45
2016-02-14T12:10:26.934Z,45
2016-02-14T12:11:26.920Z,50
2016-02-14T12:12:26.923Z,50
2016-02-14T12:13:26.911Z,50
2016-02-14T12:14:26.960Z,55
2016-02-14T12:15:26.916Z,55
2016-02-14T12:16:26.934Z,60
2016-02-14T12:17:26.952Z,60
2016-02-14T12:18:26.924Z,65
2016-02-14T12:19:26.941Z,70
2016-02-14T12:20:26.961Z,70
2016-02-14T12:21:26.932Z,75
2016-02-14T12:22:26.965Z,75
2016-02-14T12:23:26.938Z,75
2016-02-14T12:24:26.971Z,70
2016-02-14T12:25:26.958Z,70
2016-02-14T12:26:26.945Z,70
2016-02-14T12:27:26.964Z,70
2016-02-14T12:28:26.935Z,75
2016-02-14T12:29:26.937Z,80
2016-02-14T12:30:26.957Z,80
2016-02-14T12:31:26.943Z,85
2016-02-14T12:32:26.962Z,80
2016-02-14T12:33:26.933Z,85
2016-02-14T12:34:26.936Z,85
2016-02-14T12:35:26.939Z,85
2016-02-14T12:36:26.972Z,85
2016-02-14T12:37:26.944Z,85
2016-02-14T12:38:26.978Z,85
2016-02-14T12:39:26.950Z,85
2016-02-14T12:40:26.967Z,85
2016-02-14T12:41:26.970Z,80
2016-02-14T12:42:26.958Z,80
2016-02-14T12:43:26.975Z,75
2016-02-14T12:44:26.978Z,75
2016-02-14T12:45:26.981Z,70
2016-02-14T12:46:26.953Z,70
2016-02-14T12:47:26.955Z,70
2016-02-14T12:48:26.974Z,70
2016-02-14T12:49:26.960Z,65
2016-02-14T12:50:26.963Z,65
2016-02-14T12:51:27.013Z,65
2016-02-14T12:52:26.968Z,65
2016-02-14T12:53:26.972Z,65
2016-02-14T12:54:26.990Z,60
2016-02-14T12:55:26.977Z,60
2016-02-14T12:56:26.995Z,55
2016-02-14T12:57:26.966Z,55
2016-02-14T12:58:27.001Z,50
2016-02-14T12:59:26.987Z,55
2016-02-14T13:00:26.974Z,55
2016-02-14T13:01:26.992Z,50
2016-02-14T13:02:26.965Z,50
2016-02-14T13:03:26.998Z,45
2016-02-14T13:04:26.969Z,45
2016-02-14T13:05:27.004Z,40
2016-02-14T13:06:26.975Z,35
2016-02-14T13:07:26.978Z,35
2016-02-14T13:08:26.995Z,35
2016-02-14T13:09:26.999Z,35
2016-02-14T13:10:27.001Z,35
2016-02-14T13:11:26.988Z,30
2016-02-14T13:12:26.991Z,30
2016-02-14T13:13:26.994Z,35
2016-02-14T13:14:26.981Z,35
2016-02-14T13:15:27.014Z,35
2016-02-14T13:16:27.002Z,35
2016-02-14T13:17:26.989Z,40
2016-02-14T13:18:26.991Z,40
2016-02-14T13:19:26.994Z,35
2016-02-14T13:20:27.013Z,35
2016-02-14T13:21:27.016Z,35
2016-02-14T13:22:27.002Z,35
2016-02-14T13:23:27.005Z,35
2016-02-14T13:24:27.024Z,35
2016-02-14T13:25:26.994Z,40
2016-02-14T13:26:27.044Z,40
2016-02-14T13:27:27.000Z,40
2016-02-14T13:28:27.018Z,40
2016-02-14T13:29:27.005Z,40
2016-02-14T13:30:26.993Z,40
2016-02-14T13:31:27.026Z,35
2016-02-14T13:32:26.998Z,35
2016-02-14T13:33:27.001Z,35
2016-02-14T13:34:27.019Z,35
2016-02-14T13:35:27.006Z,30
2016-02-14T13:36:27.024Z,30
2016-02-14T13:37:26.980Z,30
2016-02-14T13:38:26.998Z,30
2016-02-14T13:39:27.017Z,30
2016-02-14T13:40:27.019Z,30
2016-02-14T13:41:27.007Z,25
2016-02-14T13:42:27.009Z,25
2016-02-14T13:43:27.028Z,30
2016-02-14T13:44:27.014Z,30
2016-02-14T13:45:27.002Z,30
2016-02-14T13:46:27.051Z,30
2016-02-14T13:47:27.007Z,30
2016-02-14T13:48:27.011Z,30
2016-02-14T13:49:27.012Z,30
2016-02-14T13:50:27.016Z,30
2016-02-14T13:51:27.018Z,35
2016-02-14T13:52:27.004Z,40
2016-02-14T13:53:27.008Z,35
2016-02-14T13:54:27.026Z,35
2016-02-14T13:55:27.013Z,35
2016-02-14T13:56:27.015Z,35
2016-02-14T13:57:27.003Z,40
2016-02-14T13:58:27.021Z,40
2016-02-14T13:59:27.023Z,40
2016-02-14T14:00:27.027Z,40
2016-02-14T14:01:26.998Z,35
2016-02-14T14:02:27.001Z,35
2016-02-14T14:03:27.018Z,35
2016-02-14T14:04:26.568Z,35
2016-02-14T14:05:27.014Z,35
2016-02-14T14:06:27.016Z,35
2016-02-14T14:07:27.019Z,45
2016-02-14T14:08:27.022Z,50
2016-02-14T14:09:27.009Z,50
2016-02-14T14:10:27.011Z,50
2016-02-14T14:11:27.014Z,50
2016-02-14T14:12:27.032Z,45
2016-02-14T14:13:27.019Z,40
2016-02-14T14:14:27.006Z,40
2016-02-14T14:15:27.009Z,40
2016-02-14T14:16:27.027Z,35
2016-02-14T14:17:27.014Z,35
2016-02-14T14:18:27.017Z,35
2016-02-14T14:19:27.019Z,45
2016-02-14T14:20:27.007Z,45
2016-02-14T14:21:27.010Z,50
2016-02-14T14:22:27.044Z,50
2016-02-14T14:23:27.015Z,50
2016-02-14T14:24:27.032Z,55
2016-02-14T14:25:27.021Z,55